RYR52W GMTT-LEVC
Flight info
| Callsign | RYR52W |
|---|---|
| Flight time | N/A |
| Altitude | 34000 |
| Route | LAMAD M143 GALTO N869 PIMOS DCT RIXUR DCT PEPAS DCT ARPEX DCT KOSEL DCT BUDIT DCT ETURA DCT XEBAR DCT POBOS M985 ASTRO |
| Aircraft | B738/M-SDGIJ1LRWY/SB1 |
Departure
| Time | 2026-04-25 14:45 |
|---|---|
| Airport | Tangier Ibn Battuta Airport (GMTT) |
Arrival
| Time | N/A |
|---|---|
| Airport | Valencia Airport (LEVC) |
| Time | Latitude | Longitude | Altitude | Speed | Heading |
|---|---|---|---|---|---|
| 2026-04-25 14:11 | 35.72510 | -5.91345 | 52 ft | 0 kts | 355° |
| 2026-04-25 14:34 | 35.72496 | -5.91343 | 51 ft | 2 kts | 355° |
| 2026-04-25 14:34 | 35.72487 | -5.91343 | 51 ft | 2 kts | 355° |
| 2026-04-25 14:34 | 35.72472 | -5.91338 | 51 ft | 2 kts | 333° |
| 2026-04-25 14:34 | 35.72460 | -5.91329 | 51 ft | 2 kts | 319° |
| 2026-04-25 14:35 | 35.72450 | -5.91315 | 51 ft | 2 kts | 301° |
| 2026-04-25 14:35 | 35.72443 | -5.91298 | 52 ft | 2 kts | 285° |
| 2026-04-25 14:35 | 35.72441 | -5.91280 | 52 ft | 1 kts | 268° |
| 2026-04-25 14:35 | 35.72442 | -5.91272 | 52 ft | 1 kts | 263° |
| 2026-04-25 14:36 | 35.72442 | -5.91270 | 52 ft | 0 kts | 264° |
| 2026-04-25 14:37 | 35.72441 | -5.91285 | 52 ft | 5 kts | 264° |
| 2026-04-25 14:38 | 35.72435 | -5.91357 | 51 ft | 11 kts | 265° |
| 2026-04-25 14:38 | 35.72429 | -5.91462 | 49 ft | 12 kts | 266° |
| 2026-04-25 14:38 | 35.72425 | -5.91565 | 48 ft | 11 kts | 276° |
| 2026-04-25 14:38 | 35.72458 | -5.91650 | 47 ft | 10 kts | 315° |
| 2026-04-25 14:39 | 35.72539 | -5.91688 | 46 ft | 14 kts | 355° |
| 2026-04-25 14:39 | 35.72637 | -5.91696 | 46 ft | 13 kts | 355° |
| 2026-04-25 14:39 | 35.72729 | -5.91705 | 46 ft | 12 kts | 355° |
| 2026-04-25 14:39 | 35.72814 | -5.91713 | 46 ft | 11 kts | 355° |
| 2026-04-25 14:40 | 35.72892 | -5.91720 | 46 ft | 10 kts | 356° |
| 2026-04-25 14:40 | 35.72948 | -5.91774 | 45 ft | 13 kts | 287° |
| 2026-04-25 14:40 | 35.72965 | -5.91925 | 42 ft | 22 kts | 276° |
| 2026-04-25 14:40 | 35.72983 | -5.92124 | 39 ft | 23 kts | 276° |
| 2026-04-25 14:41 | 35.73003 | -5.92327 | 37 ft | 23 kts | 276° |
| 2026-04-25 14:41 | 35.73021 | -5.92529 | 35 ft | 23 kts | 276° |
| 2026-04-25 14:41 | 35.73040 | -5.92727 | 34 ft | 23 kts | 277° |
| 2026-04-25 14:41 | 35.73058 | -5.92923 | 33 ft | 22 kts | 276° |
| 2026-04-25 14:42 | 35.73076 | -5.93113 | 32 ft | 22 kts | 276° |
| 2026-04-25 14:42 | 35.73087 | -5.93237 | 32 ft | 21 kts | 276° |
| 2026-04-25 14:42 | 35.73109 | -5.93478 | 31 ft | 20 kts | 277° |
| 2026-04-25 14:42 | 35.73126 | -5.93654 | 30 ft | 20 kts | 276° |
| 2026-04-25 14:43 | 35.73141 | -5.93824 | 29 ft | 19 kts | 276° |
| 2026-04-25 14:43 | 35.73156 | -5.93973 | 29 ft | 12 kts | 284° |
| 2026-04-25 14:43 | 35.73206 | -5.94046 | 29 ft | 10 kts | 335° |
| 2026-04-25 14:43 | 35.73272 | -5.94052 | 29 ft | 8 kts | 17° |
| 2026-04-25 14:44 | 35.73320 | -5.94007 | 30 ft | 8 kts | 54° |
| 2026-04-25 14:44 | 35.73334 | -5.93936 | 30 ft | 9 kts | 93° |
| 2026-04-25 14:44 | 35.73318 | -5.93758 | 30 ft | 46 kts | 96° |
| 2026-04-25 14:44 | 35.73256 | -5.93102 | 33 ft | 106 kts | 96° |
| 2026-04-25 14:45 | 35.73190 | -5.92395 | 37 ft | 140 kts | 96° |
| 2026-04-25 14:45 | 35.72962 | -5.90628 | 458 ft | 164 kts | 99° |
| 2026-04-25 14:45 | 35.72780 | -5.89244 | 1041 ft | 166 kts | 90° |
| 2026-04-25 14:45 | 35.72762 | -5.87809 | 1542 ft | 174 kts | 89° |
| 2026-04-25 14:46 | 35.72666 | -5.86317 | 1968 ft | 180 kts | 94° |
| 2026-04-25 14:46 | 35.72505 | -5.84746 | 2296 ft | 192 kts | 94° |
| 2026-04-25 14:46 | 35.72343 | -5.83061 | 2551 ft | 209 kts | 94° |
| 2026-04-25 14:46 | 35.72186 | -5.81235 | 2884 ft | 223 kts | 92° |
| 2026-04-25 14:47 | 35.72252 | -5.79269 | 3283 ft | 235 kts | 78° |
| 2026-04-25 14:47 | 35.72512 | -5.77946 | 3560 ft | 243 kts | 74° |
| 2026-04-25 14:47 | 35.73150 | -5.75272 | 4234 ft | 252 kts | 74° |
| 2026-04-25 14:47 | 35.73616 | -5.73181 | 4851 ft | 254 kts | 75° |
| 2026-04-25 14:48 | 35.74058 | -5.71065 | 5421 ft | 259 kts | 76° |
| 2026-04-25 14:48 | 35.74497 | -5.68920 | 5994 ft | 262 kts | 76° |
| 2026-04-25 14:48 | 35.74944 | -5.66725 | 6588 ft | 266 kts | 76° |
| 2026-04-25 14:48 | 35.75395 | -5.64520 | 7265 ft | 268 kts | 76° |
| 2026-04-25 14:49 | 35.75849 | -5.62300 | 7820 ft | 273 kts | 76° |
| 2026-04-25 14:49 | 35.76317 | -5.60011 | 8402 ft | 279 kts | 76° |
| 2026-04-25 14:49 | 35.76790 | -5.57691 | 9108 ft | 279 kts | 76° |
| 2026-04-25 14:49 | 35.77263 | -5.55370 | 9710 ft | 283 kts | 76° |
| 2026-04-25 14:50 | 35.77742 | -5.53006 | 10305 ft | 288 kts | 76° |
| 2026-04-25 14:50 | 35.78235 | -5.50562 | 10674 ft | 302 kts | 76° |
| 2026-04-25 14:50 | 35.78741 | -5.47996 | 11022 ft | 317 kts | 77° |
| 2026-04-25 14:50 | 35.79179 | -5.45292 | 11307 ft | 333 kts | 80° |
| 2026-04-25 14:51 | 35.79570 | -5.42433 | 11693 ft | 345 kts | 81° |
| 2026-04-25 14:51 | 35.79951 | -5.39482 | 12226 ft | 352 kts | 81° |
| 2026-04-25 14:51 | 35.80338 | -5.36495 | 12912 ft | 355 kts | 81° |
| 2026-04-25 14:51 | 35.80734 | -5.33491 | 13583 ft | 358 kts | 81° |
| 2026-04-25 14:52 | 35.81145 | -5.30425 | 14202 ft | 363 kts | 80° |
| 2026-04-25 14:52 | 35.81562 | -5.27350 | 14912 ft | 366 kts | 80° |
| 2026-04-25 14:52 | 35.81980 | -5.24283 | 15587 ft | 369 kts | 79° |
| 2026-04-25 14:52 | 35.82265 | -5.22195 | 16052 ft | 370 kts | 79° |
| 2026-04-25 14:53 | 35.82948 | -5.18208 | 16859 ft | 374 kts | 72° |
| 2026-04-25 14:53 | 35.83989 | -5.15286 | 17482 ft | 375 kts | 57° |
| 2026-04-25 14:53 | 35.85646 | -5.12829 | 18122 ft | 376 kts | 42° |
| 2026-04-25 14:53 | 35.87719 | -5.10852 | 18679 ft | 380 kts | 34° |
| 2026-04-25 14:54 | 35.89946 | -5.09042 | 19307 ft | 383 kts | 32° |
| 2026-04-25 14:54 | 35.92205 | -5.07278 | 19891 ft | 385 kts | 31° |
| 2026-04-25 14:54 | 35.94486 | -5.05515 | 20477 ft | 389 kts | 31° |
| 2026-04-25 14:54 | 35.96780 | -5.03740 | 21031 ft | 392 kts | 31° |
| 2026-04-25 14:55 | 35.99102 | -5.01935 | 21557 ft | 395 kts | 31° |
| 2026-04-25 14:55 | 36.01424 | -5.00120 | 22108 ft | 398 kts | 31° |
| 2026-04-25 14:55 | 36.03764 | -4.98282 | 22655 ft | 400 kts | 31° |
| 2026-04-25 14:55 | 36.06116 | -4.96431 | 23149 ft | 403 kts | 31° |
| 2026-04-25 14:56 | 36.08470 | -4.94573 | 23683 ft | 404 kts | 31° |
| 2026-04-25 14:56 | 36.10862 | -4.92682 | 24160 ft | 408 kts | 31° |
| 2026-04-25 14:56 | 36.13193 | -4.90730 | 24628 ft | 411 kts | 34° |
| 2026-04-25 14:56 | 36.15470 | -4.88515 | 25091 ft | 415 kts | 39° |
| 2026-04-25 14:57 | 36.17599 | -4.86118 | 25532 ft | 418 kts | 42° |
| 2026-04-25 14:57 | 36.19631 | -4.83621 | 25975 ft | 421 kts | 44° |
| 2026-04-25 14:57 | 36.21705 | -4.80967 | 26464 ft | 423 kts | 45° |
| 2026-04-25 14:57 | 36.23733 | -4.78328 | 26857 ft | 427 kts | 45° |
| 2026-04-25 14:58 | 36.25656 | -4.75813 | 27258 ft | 429 kts | 45° |
| 2026-04-25 14:58 | 36.27705 | -4.73132 | 27664 ft | 432 kts | 45° |
| 2026-04-25 14:58 | 36.29774 | -4.70429 | 28095 ft | 434 kts | 45° |
| 2026-04-25 14:58 | 36.31849 | -4.67723 | 28493 ft | 436 kts | 45° |
| 2026-04-25 14:59 | 36.33939 | -4.65003 | 28853 ft | 439 kts | 45° |
| 2026-04-25 14:59 | 36.36050 | -4.62258 | 29351 ft | 439 kts | 45° |
| 2026-04-25 14:59 | 36.38086 | -4.59609 | 29692 ft | 442 kts | 44° |
| 2026-04-25 14:59 | 36.40194 | -4.56867 | 30317 ft | 437 kts | 44° |
| 2026-04-25 15:00 | 36.42282 | -4.54150 | 30896 ft | 433 kts | 44° |
| 2026-04-25 15:00 | 36.43511 | -4.52550 | 31189 ft | 432 kts | 44° |
| 2026-04-25 15:00 | 36.45649 | -4.49765 | 31544 ft | 432 kts | 44° |
| 2026-04-25 15:00 | 36.47711 | -4.47077 | 31909 ft | 432 kts | 44° |
| 2026-04-25 15:01 | 36.49788 | -4.44369 | 32327 ft | 431 kts | 44° |
| 2026-04-25 15:01 | 36.51846 | -4.41682 | 32756 ft | 429 kts | 44° |
| 2026-04-25 15:01 | 36.53878 | -4.39028 | 33114 ft | 428 kts | 44° |
| 2026-04-25 15:01 | 36.55920 | -4.36360 | 33442 ft | 428 kts | 44° |
| 2026-04-25 15:02 | 36.57970 | -4.33680 | 33734 ft | 429 kts | 45° |
| 2026-04-25 15:02 | 36.60017 | -4.31001 | 34017 ft | 429 kts | 45° |
| 2026-04-25 15:02 | 36.64176 | -4.25553 | 34035 ft | 434 kts | 45° |
| 2026-04-25 15:03 | 36.68037 | -4.20487 | 34057 ft | 434 kts | 45° |
| 2026-04-25 15:03 | 36.72194 | -4.15020 | 34052 ft | 434 kts | 45° |
| 2026-04-25 15:04 | 36.76349 | -4.09544 | 34045 ft | 434 kts | 45° |
| 2026-04-25 15:04 | 36.80493 | -4.04077 | 34051 ft | 434 kts | 46° |
| 2026-04-25 15:05 | 36.84624 | -3.98617 | 34062 ft | 434 kts | 46° |
| 2026-04-25 15:06 | 36.90805 | -3.90431 | 34080 ft | 432 kts | 46° |
| 2026-04-25 15:06 | 36.94911 | -3.84983 | 34105 ft | 431 kts | 46° |
| 2026-04-25 15:07 | 36.98985 | -3.79569 | 34089 ft | 428 kts | 46° |
| 2026-04-25 15:07 | 37.03058 | -3.74142 | 34093 ft | 427 kts | 47° |
| 2026-04-25 15:08 | 37.07109 | -3.68738 | 34090 ft | 426 kts | 47° |
| 2026-04-25 15:08 | 37.11160 | -3.63330 | 34104 ft | 426 kts | 47° |
| 2026-04-25 15:09 | 37.15234 | -3.58003 | 34090 ft | 424 kts | 47° |
| 2026-04-25 15:09 | 37.21456 | -3.50002 | 34082 ft | 426 kts | 47° |
| 2026-04-25 15:10 | 37.25567 | -3.44703 | 34107 ft | 428 kts | 47° |
| 2026-04-25 15:11 | 37.30597 | -3.38189 | 34079 ft | 425 kts | 47° |
| 2026-04-25 15:11 | 37.34667 | -3.32905 | 34106 ft | 428 kts | 49° |
| 2026-04-25 15:12 | 37.40643 | -3.25126 | 34086 ft | 427 kts | 49° |
| 2026-04-25 15:12 | 37.44085 | -3.20636 | 34086 ft | 428 kts | 49° |
| 2026-04-25 15:13 | 37.50816 | -3.11837 | 34084 ft | 429 kts | 49° |
| 2026-04-25 15:14 | 37.54955 | -3.06414 | 34094 ft | 431 kts | 49° |
| 2026-04-25 15:14 | 37.59082 | -3.00999 | 34084 ft | 427 kts | 49° |
| 2026-04-25 15:15 | 37.63190 | -2.95603 | 34084 ft | 427 kts | 49° |
| 2026-04-25 15:15 | 37.67286 | -2.90211 | 34098 ft | 429 kts | 49° |
| 2026-04-25 15:16 | 37.71425 | -2.84752 | 34087 ft | 430 kts | 49° |
| 2026-04-25 15:16 | 37.77570 | -2.76635 | 34085 ft | 428 kts | 49° |
| 2026-04-25 15:17 | 37.83732 | -2.68471 | 34092 ft | 429 kts | 49° |
| 2026-04-25 15:18 | 37.87834 | -2.63025 | 34092 ft | 428 kts | 49° |
| 2026-04-25 15:18 | 37.93993 | -2.54834 | 34093 ft | 428 kts | 49° |
| 2026-04-25 15:19 | 37.97393 | -2.50303 | 34102 ft | 429 kts | 49° |
| 2026-04-25 15:19 | 38.02185 | -2.43908 | 34101 ft | 430 kts | 49° |
| 2026-04-25 15:20 | 38.06314 | -2.38387 | 34096 ft | 430 kts | 49° |
| 2026-04-25 15:20 | 38.10405 | -2.32904 | 34096 ft | 431 kts | 50° |
| 2026-04-25 15:21 | 38.14373 | -2.27578 | 34096 ft | 431 kts | 50° |